sensor_id;sensor_type;location;lat;lon;timestamp;P1;durP1;ratioP1;P2;durP2;ratioP2
37451;SDS011;23314;51.114;6.900;2023-04-25T00:01:20;17.93;;;7.57;;
37451;SDS011;23314;51.114;6.900;2023-04-25T00:03:49;16.70;;;7.00;;
37451;SDS011;23314;51.114;6.900;2023-04-25T00:06:15;13.50;;;7.70;;
37451;SDS011;23314;51.114;6.900;2023-04-25T00:08:40;17.77;;;7.27;;
37451;SDS011;23314;51.114;6.900;2023-04-25T00:11:06;14.53;;;7.30;;
37451;SDS011;23314;51.114;6.900;2023-04-25T00:13:31;18.33;;;7.53;;
37451;SDS011;23314;51.114;6.900;2023-04-25T00:15:56;17.90;;;8.50;;
37451;SDS011;23314;51.114;6.900;2023-04-25T00:18:23;15.73;;;7.13;;
37451;SDS011;23314;51.114;6.900;2023-04-25T00:20:48;23.43;;;7.93;;
37451;SDS011;23314;51.114;6.900;2023-04-25T00:23:14;19.90;;;7.70;;
37451;SDS011;23314;51.114;6.900;2023-04-25T00:25:49;13.23;;;7.47;;
37451;SDS011;23314;51.114;6.900;2023-04-25T00:28:15;18.77;;;8.63;;
37451;SDS011;23314;51.114;6.900;2023-04-25T00:30:41;13.90;;;7.33;;
37451;SDS011;23314;51.114;6.900;2023-04-25T00:33:07;16.60;;;7.93;;
37451;SDS011;23314;51.114;6.900;2023-04-25T00:35:33;19.70;;;7.07;;
37451;SDS011;23314;51.114;6.900;2023-04-25T00:37:59;13.63;;;7.47;;
37451;SDS011;23314;51.114;6.900;2023-04-25T00:40:24;20.60;;;7.70;;
37451;SDS011;23314;51.114;6.900;2023-04-25T00:42:50;14.60;;;7.20;;
37451;SDS011;23314;51.114;6.900;2023-04-25T00:45:17;14.77;;;7.23;;
37451;SDS011;23314;51.114;6.900;2023-04-25T00:47:43;12.93;;;6.53;;
37451;SDS011;23314;51.114;6.900;2023-04-25T00:50:09;21.63;;;7.27;;
37451;SDS011;23314;51.114;6.900;2023-04-25T00:52:35;12.63;;;6.93;;
37451;SDS011;23314;51.114;6.900;2023-04-25T00:55:02;18.33;;;7.43;;
37451;SDS011;23314;51.114;6.900;2023-04-25T00:57:27;16.27;;;6.93;;
37451;SDS011;23314;51.114;6.900;2023-04-25T00:59:53;15.67;;;6.43;;
37451;SDS011;23314;51.114;6.900;2023-04-25T01:02:19;14.07;;;7.07;;
37451;SDS011;23314;51.114;6.900;2023-04-25T01:04:45;15.43;;;6.37;;
37451;SDS011;23314;51.114;6.900;2023-04-25T01:07:12;14.60;;;6.50;;
37451;SDS011;23314;51.114;6.900;2023-04-25T01:09:37;15.50;;;6.37;;
37451;SDS011;23314;51.114;6.900;2023-04-25T01:12:03;15.53;;;6.43;;
37451;SDS011;23314;51.114;6.900;2023-04-25T01:14:28;17.83;;;6.20;;
37451;SDS011;23314;51.114;6.900;2023-04-25T01:16:55;20.63;;;6.50;;
37451;SDS011;23314;51.114;6.900;2023-04-25T01:19:20;20.73;;;6.53;;
37451;SDS011;23314;51.114;6.900;2023-04-25T01:21:45;17.77;;;6.67;;
37451;SDS011;23314;51.114;6.900;2023-04-25T01:24:12;15.83;;;5.57;;
37451;SDS011;23314;51.114;6.900;2023-04-25T01:26:37;14.57;;;6.60;;
37451;SDS011;23314;51.114;6.900;2023-04-25T01:29:04;14.97;;;6.37;;
37451;SDS011;23314;51.114;6.900;2023-04-25T01:31:30;16.03;;;5.37;;
37451;SDS011;23314;51.114;6.900;2023-04-25T01:33:57;12.83;;;5.70;;
37451;SDS011;23314;51.114;6.900;2023-04-25T01:36:22;15.17;;;5.80;;
37451;SDS011;23314;51.114;6.900;2023-04-25T01:38:47;14.67;;;5.83;;
37451;SDS011;23314;51.114;6.900;2023-04-25T01:41:13;18.53;;;6.30;;
37451;SDS011;23314;51.114;6.900;2023-04-25T01:43:39;11.97;;;5.30;;
37451;SDS011;23314;51.114;6.900;2023-04-25T01:46:05;18.93;;;5.40;;
37451;SDS011;23314;51.114;6.900;2023-04-25T01:48:31;13.00;;;5.07;;
37451;SDS011;23314;51.114;6.900;2023-04-25T01:50:56;16.93;;;5.90;;
37451;SDS011;23314;51.114;6.900;2023-04-25T01:53:21;15.40;;;6.27;;
37451;SDS011;23314;51.114;6.900;2023-04-25T01:55:47;16.67;;;6.07;;
37451;SDS011;23314;51.114;6.900;2023-04-25T01:58:13;16.80;;;6.70;;
37451;SDS011;23314;51.114;6.900;2023-04-25T02:00:38;15.43;;;6.07;;
37451;SDS011;23314;51.114;6.900;2023-04-25T02:03:04;18.37;;;6.20;;
37451;SDS011;23314;51.114;6.900;2023-04-25T02:05:34;15.53;;;5.30;;
37451;SDS011;23314;51.114;6.900;2023-04-25T02:08:00;13.83;;;6.47;;
37451;SDS011;23314;51.114;6.900;2023-04-25T02:10:26;17.50;;;6.50;;
37451;SDS011;23314;51.114;6.900;2023-04-25T02:12:51;16.23;;;6.60;;
37451;SDS011;23314;51.114;6.900;2023-04-25T02:15:16;17.17;;;5.83;;
37451;SDS011;23314;51.114;6.900;2023-04-25T02:17:42;20.97;;;6.67;;
37451;SDS011;23314;51.114;6.900;2023-04-25T02:20:07;18.70;;;6.80;;
37451;SDS011;23314;51.114;6.900;2023-04-25T02:22:33;20.93;;;6.60;;
37451;SDS011;23314;51.114;6.900;2023-04-25T02:25:00;13.00;;;5.97;;
37451;SDS011;23314;51.114;6.900;2023-04-25T02:27:25;21.07;;;6.07;;
37451;SDS011;23314;51.114;6.900;2023-04-25T02:29:51;12.33;;;5.30;;
37451;SDS011;23314;51.114;6.900;2023-04-25T02:32:16;15.37;;;6.00;;
37451;SDS011;23314;51.114;6.900;2023-04-25T02:34:42;10.03;;;5.37;;
37451;SDS011;23314;51.114;6.900;2023-04-25T02:37:07;15.00;;;5.97;;
37451;SDS011;23314;51.114;6.900;2023-04-25T02:39:32;15.83;;;6.57;;
37451;SDS011;23314;51.114;6.900;2023-04-25T02:41:58;20.20;;;6.10;;
37451;SDS011;23314;51.114;6.900;2023-04-25T02:44:23;14.60;;;5.37;;
37451;SDS011;23314;51.114;6.900;2023-04-25T02:46:48;10.90;;;4.97;;
37451;SDS011;23314;51.114;6.900;2023-04-25T02:49:14;9.77;;;4.57;;
37451;SDS011;23314;51.114;6.900;2023-04-25T02:51:39;14.67;;;5.03;;
37451;SDS011;23314;51.114;6.900;2023-04-25T02:54:06;10.27;;;4.80;;
37451;SDS011;23314;51.114;6.900;2023-04-25T02:56:31;10.20;;;4.43;;
37451;SDS011;23314;51.114;6.900;2023-04-25T02:58:56;12.60;;;4.70;;
37451;SDS011;23314;51.114;6.900;2023-04-25T03:01:22;12.13;;;5.13;;
37451;SDS011;23314;51.114;6.900;2023-04-25T03:03:47;6.00;;;3.80;;
37451;SDS011;23314;51.114;6.900;2023-04-25T03:06:12;10.83;;;4.70;;
37451;SDS011;23314;51.114;6.900;2023-04-25T03:08:38;14.57;;;4.40;;
37451;SDS011;23314;51.114;6.900;2023-04-25T03:11:03;11.47;;;4.23;;
37451;SDS011;23314;51.114;6.900;2023-04-25T03:13:29;7.33;;;4.30;;
37451;SDS011;23314;51.114;6.900;2023-04-25T03:15:55;10.50;;;4.43;;
37451;SDS011;23314;51.114;6.900;2023-04-25T03:18:20;7.43;;;4.00;;
37451;SDS011;23314;51.114;6.900;2023-04-25T03:20:45;9.23;;;4.27;;
37451;SDS011;23314;51.114;6.900;2023-04-25T03:23:11;12.33;;;4.53;;
37451;SDS011;23314;51.114;6.900;2023-04-25T03:25:37;10.33;;;4.67;;
37451;SDS011;23314;51.114;6.900;2023-04-25T03:28:02;10.23;;;4.53;;
37451;SDS011;23314;51.114;6.900;2023-04-25T03:30:27;8.43;;;4.03;;
37451;SDS011;23314;51.114;6.900;2023-04-25T03:32:53;10.43;;;4.87;;
37451;SDS011;23314;51.114;6.900;2023-04-25T03:35:18;9.40;;;4.60;;
37451;SDS011;23314;51.114;6.900;2023-04-25T03:37:48;12.53;;;4.80;;
37451;SDS011;23314;51.114;6.900;2023-04-25T03:40:14;9.53;;;4.30;;
37451;SDS011;23314;51.114;6.900;2023-04-25T03:42:39;10.33;;;4.60;;
37451;SDS011;23314;51.114;6.900;2023-04-25T03:45:05;10.80;;;4.77;;
37451;SDS011;23314;51.114;6.900;2023-04-25T03:47:31;13.27;;;5.37;;
37451;SDS011;23314;51.114;6.900;2023-04-25T03:49:56;11.83;;;5.10;;
37451;SDS011;23314;51.114;6.900;2023-04-25T03:52:21;10.20;;;4.47;;
37451;SDS011;23314;51.114;6.900;2023-04-25T03:54:47;15.60;;;5.37;;
37451;SDS011;23314;51.114;6.900;2023-04-25T03:57:12;15.47;;;6.07;;
37451;SDS011;23314;51.114;6.900;2023-04-25T03:59:38;14.73;;;6.20;;
37451;SDS011;23314;51.114;6.900;2023-04-25T04:02:03;12.17;;;5.90;;
37451;SDS011;23314;51.114;6.900;2023-04-25T04:04:28;17.30;;;6.47;;
37451;SDS011;23314;51.114;6.900;2023-04-25T04:06:54;14.90;;;6.20;;
37451;SDS011;23314;51.114;6.900;2023-04-25T04:09:19;14.87;;;6.60;;
37451;SDS011;23314;51.114;6.900;2023-04-25T04:11:45;18.10;;;6.53;;
37451;SDS011;23314;51.114;6.900;2023-04-25T04:14:10;13.20;;;6.43;;
37451;SDS011;23314;51.114;6.900;2023-04-25T04:16:36;13.50;;;6.17;;
37451;SDS011;23314;51.114;6.900;2023-04-25T04:19:02;16.87;;;5.90;;
37451;SDS011;23314;51.114;6.900;2023-04-25T04:21:27;19.57;;;7.20;;
37451;SDS011;23314;51.114;6.900;2023-04-25T04:23:53;19.60;;;6.60;;
37451;SDS011;23314;51.114;6.900;2023-04-25T04:26:19;18.70;;;7.20;;
37451;SDS011;23314;51.114;6.900;2023-04-25T04:28:48;15.57;;;6.47;;
37451;SDS011;23314;51.114;6.900;2023-04-25T04:31:15;15.47;;;7.00;;
37451;SDS011;23314;51.114;6.900;2023-04-25T04:33:43;15.93;;;6.17;;
37451;SDS011;23314;51.114;6.900;2023-04-25T04:36:09;16.03;;;6.63;;
37451;SDS011;23314;51.114;6.900;2023-04-25T04:38:35;17.93;;;6.33;;
37451;SDS011;23314;51.114;6.900;2023-04-25T04:41:01;17.50;;;7.60;;
37451;SDS011;23314;51.114;6.900;2023-04-25T04:43:27;23.43;;;6.77;;
37451;SDS011;23314;51.114;6.900;2023-04-25T04:45:53;22.40;;;6.80;;
37451;SDS011;23314;51.114;6.900;2023-04-25T04:48:21;24.40;;;6.67;;
37451;SDS011;23314;51.114;6.900;2023-04-25T04:50:46;21.90;;;7.33;;
37451;SDS011;23314;51.114;6.900;2023-04-25T04:53:12;16.60;;;5.90;;
37451;SDS011;23314;51.114;6.900;2023-04-25T04:55:40;16.20;;;6.07;;
37451;SDS011;23314;51.114;6.900;2023-04-25T04:58:08;25.23;;;6.63;;
37451;SDS011;23314;51.114;6.900;2023-04-25T05:00:33;18.13;;;5.63;;
37451;SDS011;23314;51.114;6.900;2023-04-25T05:02:59;25.43;;;6.90;;
37451;SDS011;23314;51.114;6.900;2023-04-25T05:05:24;22.77;;;6.80;;
37451;SDS011;23314;51.114;6.900;2023-04-25T05:07:50;21.77;;;6.93;;
37451;SDS011;23314;51.114;6.900;2023-04-25T05:10:16;19.63;;;6.93;;
37451;SDS011;23314;51.114;6.900;2023-04-25T05:12:45;17.67;;;5.97;;
37451;SDS011;23314;51.114;6.900;2023-04-25T05:15:12;18.33;;;6.57;;
37451;SDS011;23314;51.114;6.900;2023-04-25T05:17:40;23.53;;;7.73;;
37451;SDS011;23314;51.114;6.900;2023-04-25T05:20:07;25.93;;;7.63;;
37451;SDS011;23314;51.114;6.900;2023-04-25T05:22:34;22.30;;;8.07;;
37451;SDS011;23314;51.114;6.900;2023-04-25T05:25:00;27.40;;;8.30;;
37451;SDS011;23314;51.114;6.900;2023-04-25T05:27:26;27.60;;;8.77;;
37451;SDS011;23314;51.114;6.900;2023-04-25T05:29:52;29.90;;;10.20;;
37451;SDS011;23314;51.114;6.900;2023-04-25T05:32:28;22.47;;;9.03;;
37451;SDS011;23314;51.114;6.900;2023-04-25T05:34:53;22.33;;;6.27;;
37451;SDS011;23314;51.114;6.900;2023-04-25T05:37:19;17.83;;;5.47;;
37451;SDS011;23314;51.114;6.900;2023-04-25T05:39:44;17.93;;;5.53;;
37451;SDS011;23314;51.114;6.900;2023-04-25T05:42:09;24.47;;;7.20;;
37451;SDS011;23314;51.114;6.900;2023-04-25T05:44:35;21.43;;;5.97;;
37451;SDS011;23314;51.114;6.900;2023-04-25T05:47:01;21.73;;;5.50;;
37451;SDS011;23314;51.114;6.900;2023-04-25T05:49:26;20.47;;;5.83;;
37451;SDS011;23314;51.114;6.900;2023-04-25T05:51:52;18.20;;;6.10;;
37451;SDS011;23314;51.114;6.900;2023-04-25T05:54:17;17.53;;;5.77;;
37451;SDS011;23314;51.114;6.900;2023-04-25T05:56:43;15.73;;;6.33;;
37451;SDS011;23314;51.114;6.900;2023-04-25T05:59:08;20.77;;;7.03;;
37451;SDS011;23314;51.114;6.900;2023-04-25T06:01:33;18.47;;;6.70;;
37451;SDS011;23314;51.114;6.900;2023-04-25T06:03:59;19.30;;;5.93;;
37451;SDS011;23314;51.114;6.900;2023-04-25T06:06:24;18.87;;;5.87;;
37451;SDS011;23314;51.114;6.900;2023-04-25T06:08:50;21.33;;;6.07;;
37451;SDS011;23314;51.114;6.900;2023-04-25T06:11:15;18.83;;;5.77;;
37451;SDS011;23314;51.114;6.900;2023-04-25T06:13:41;20.37;;;5.87;;
37451;SDS011;23314;51.114;6.900;2023-04-25T06:16:06;15.37;;;5.90;;
37451;SDS011;23314;51.114;6.900;2023-04-25T06:18:32;16.77;;;5.17;;
37451;SDS011;23314;51.114;6.900;2023-04-25T06:20:57;26.87;;;6.23;;
37451;SDS011;23314;51.114;6.900;2023-04-25T06:23:23;15.73;;;4.97;;
37451;SDS011;23314;51.114;6.900;2023-04-25T06:25:48;17.77;;;5.53;;
37451;SDS011;23314;51.114;6.900;2023-04-25T06:28:13;18.83;;;5.30;;
37451;SDS011;23314;51.114;6.900;2023-04-25T06:30:39;17.83;;;5.23;;
37451;SDS011;23314;51.114;6.900;2023-04-25T06:33:04;15.17;;;4.97;;
37451;SDS011;23314;51.114;6.900;2023-04-25T06:35:29;13.23;;;4.73;;
37451;SDS011;23314;51.114;6.900;2023-04-25T06:37:55;19.97;;;5.57;;
37451;SDS011;23314;51.114;6.900;2023-04-25T06:40:20;21.50;;;5.20;;
37451;SDS011;23314;51.114;6.900;2023-04-25T06:42:46;18.73;;;5.50;;
37451;SDS011;23314;51.114;6.900;2023-04-25T06:45:11;17.23;;;5.07;;
37451;SDS011;23314;51.114;6.900;2023-04-25T06:47:37;18.97;;;5.00;;
37451;SDS011;23314;51.114;6.900;2023-04-25T06:50:03;18.20;;;5.37;;
37451;SDS011;23314;51.114;6.900;2023-04-25T06:52:29;18.93;;;5.60;;
37451;SDS011;23314;51.114;6.900;2023-04-25T06:54:54;20.07;;;5.90;;
37451;SDS011;23314;51.114;6.900;2023-04-25T06:57:20;20.67;;;5.50;;
37451;SDS011;23314;51.114;6.900;2023-04-25T06:59:45;16.57;;;5.50;;
37451;SDS011;23314;51.114;6.900;2023-04-25T07:02:11;13.73;;;4.33;;
37451;SDS011;23314;51.114;6.900;2023-04-25T07:04:36;22.07;;;4.93;;
37451;SDS011;23314;51.114;6.900;2023-04-25T07:07:01;15.33;;;4.57;;
37451;SDS011;23314;51.114;6.900;2023-04-25T07:09:28;13.43;;;4.80;;
37451;SDS011;23314;51.114;6.900;2023-04-25T07:11:54;14.70;;;4.93;;
37451;SDS011;23314;51.114;6.900;2023-04-25T07:14:19;10.90;;;3.80;;
37451;SDS011;23314;51.114;6.900;2023-04-25T07:16:45;16.87;;;5.60;;
37451;SDS011;23314;51.114;6.900;2023-04-25T07:19:10;15.13;;;5.07;;
37451;SDS011;23314;51.114;6.900;2023-04-25T07:21:35;12.93;;;4.43;;
37451;SDS011;23314;51.114;6.900;2023-04-25T07:24:01;15.03;;;5.37;;
37451;SDS011;23314;51.114;6.900;2023-04-25T07:26:27;17.87;;;5.07;;
37451;SDS011;23314;51.114;6.900;2023-04-25T07:28:52;12.50;;;4.90;;
37451;SDS011;23314;51.114;6.900;2023-04-25T07:31:19;14.23;;;5.37;;
37451;SDS011;23314;51.114;6.900;2023-04-25T07:33:45;16.97;;;5.43;;
37451;SDS011;23314;51.114;6.900;2023-04-25T07:36:11;11.80;;;4.57;;
37451;SDS011;23314;51.114;6.900;2023-04-25T07:38:37;15.00;;;4.53;;
37451;SDS011;23314;51.114;6.900;2023-04-25T07:41:03;15.23;;;4.97;;
37451;SDS011;23314;51.114;6.900;2023-04-25T07:43:28;16.07;;;4.70;;
37451;SDS011;23314;51.114;6.900;2023-04-25T07:45:53;13.07;;;4.57;;
37451;SDS011;23314;51.114;6.900;2023-04-25T07:48:19;15.97;;;4.47;;
37451;SDS011;23314;51.114;6.900;2023-04-25T07:50:44;12.80;;;4.77;;
37451;SDS011;23314;51.114;6.900;2023-04-25T07:53:10;13.40;;;3.90;;
37451;SDS011;23314;51.114;6.900;2023-04-25T07:55:36;9.80;;;3.20;;
37451;SDS011;23314;51.114;6.900;2023-04-25T07:58:04;12.43;;;3.50;;
37451;SDS011;23314;51.114;6.900;2023-04-25T08:00:30;14.90;;;4.37;;
37451;SDS011;23314;51.114;6.900;2023-04-25T08:02:56;18.60;;;3.63;;
37451;SDS011;23314;51.114;6.900;2023-04-25T08:05:21;12.43;;;3.23;;
37451;SDS011;23314;51.114;6.900;2023-04-25T08:07:46;26.83;;;4.83;;
37451;SDS011;23314;51.114;6.900;2023-04-25T08:10:12;10.50;;;3.33;;
37451;SDS011;23314;51.114;6.900;2023-04-25T08:12:37;11.60;;;3.70;;
37451;SDS011;23314;51.114;6.900;2023-04-25T08:15:03;13.93;;;3.37;;
37451;SDS011;23314;51.114;6.900;2023-04-25T08:17:30;10.43;;;3.37;;
37451;SDS011;23314;51.114;6.900;2023-04-25T08:19:55;10.10;;;2.83;;
37451;SDS011;23314;51.114;6.900;2023-04-25T08:22:22;12.60;;;3.73;;
37451;SDS011;23314;51.114;6.900;2023-04-25T08:24:47;14.23;;;3.60;;
37451;SDS011;23314;51.114;6.900;2023-04-25T08:27:12;12.67;;;2.97;;
37451;SDS011;23314;51.114;6.900;2023-04-25T08:29:38;11.37;;;3.87;;
37451;SDS011;23314;51.114;6.900;2023-04-25T08:32:03;13.60;;;3.30;;
37451;SDS011;23314;51.114;6.900;2023-04-25T08:34:29;12.47;;;3.47;;
37451;SDS011;23314;51.114;6.900;2023-04-25T08:36:59;13.43;;;3.87;;
37451;SDS011;23314;51.114;6.900;2023-04-25T08:39:24;15.77;;;4.13;;
37451;SDS011;23314;51.114;6.900;2023-04-25T08:41:50;11.70;;;3.27;;
37451;SDS011;23314;51.114;6.900;2023-04-25T08:44:15;13.93;;;3.50;;
37451;SDS011;23314;51.114;6.900;2023-04-25T08:46:41;9.30;;;2.80;;
37451;SDS011;23314;51.114;6.900;2023-04-25T08:49:07;9.97;;;2.77;;
37451;SDS011;23314;51.114;6.900;2023-04-25T08:51:34;12.73;;;3.00;;
37451;SDS011;23314;51.114;6.900;2023-04-25T08:54:09;9.73;;;2.80;;
37451;SDS011;23314;51.114;6.900;2023-04-25T08:56:37;11.10;;;2.50;;
37451;SDS011;23314;51.114;6.900;2023-04-25T08:59:03;8.73;;;2.67;;
37451;SDS011;23314;51.114;6.900;2023-04-25T09:01:29;15.70;;;3.30;;
37451;SDS011;23314;51.114;6.900;2023-04-25T09:03:55;9.07;;;3.20;;
37451;SDS011;23314;51.114;6.900;2023-04-25T09:06:22;10.40;;;2.90;;
37451;SDS011;23314;51.114;6.900;2023-04-25T09:08:49;10.60;;;2.90;;
37451;SDS011;23314;51.114;6.900;2023-04-25T09:11:15;6.93;;;2.77;;
37451;SDS011;23314;51.114;6.900;2023-04-25T09:13:40;10.13;;;3.30;;
37451;SDS011;23314;51.114;6.900;2023-04-25T09:16:06;11.70;;;3.07;;
37451;SDS011;23314;51.114;6.900;2023-04-25T09:18:32;6.73;;;2.80;;
37451;SDS011;23314;51.114;6.900;2023-04-25T09:21:08;6.90;;;3.10;;
37451;SDS011;23314;51.114;6.900;2023-04-25T09:23:53;13.10;;;3.00;;
37451;SDS011;23314;51.114;6.900;2023-04-25T09:26:19;10.37;;;2.80;;
37451;SDS011;23314;51.114;6.900;2023-04-25T09:28:45;8.30;;;3.00;;
37451;SDS011;23314;51.114;6.900;2023-04-25T09:31:20;9.37;;;2.40;;
37451;SDS011;23314;51.114;6.900;2023-04-25T09:33:47;7.23;;;3.20;;
37451;SDS011;23314;51.114;6.900;2023-04-25T09:36:12;7.80;;;2.63;;
37451;SDS011;23314;51.114;6.900;2023-04-25T09:38:44;6.90;;;2.27;;
37451;SDS011;23314;51.114;6.900;2023-04-25T09:41:11;6.40;;;2.10;;
37451;SDS011;23314;51.114;6.900;2023-04-25T09:43:36;8.00;;;2.60;;
37451;SDS011;23314;51.114;6.900;2023-04-25T09:46:04;5.83;;;1.80;;
37451;SDS011;23314;51.114;6.900;2023-04-25T09:48:36;6.37;;;2.00;;
37451;SDS011;23314;51.114;6.900;2023-04-25T09:53:32;9.53;;;2.73;;
37451;SDS011;23314;51.114;6.900;2023-04-25T09:55:59;8.43;;;2.23;;
37451;SDS011;23314;51.114;6.900;2023-04-25T09:58:25;8.57;;;2.27;;
37451;SDS011;23314;51.114;6.900;2023-04-25T10:00:54;4.93;;;2.00;;
37451;SDS011;23314;51.114;6.900;2023-04-25T10:03:26;5.33;;;2.20;;
37451;SDS011;23314;51.114;6.900;2023-04-25T10:05:52;7.80;;;2.30;;
37451;SDS011;23314;51.114;6.900;2023-04-25T10:08:18;6.73;;;2.40;;
37451;SDS011;23314;51.114;6.900;2023-04-25T10:10:44;7.43;;;2.80;;
37451;SDS011;23314;51.114;6.900;2023-04-25T10:13:12;7.33;;;2.17;;
37451;SDS011;23314;51.114;6.900;2023-04-25T10:15:39;5.77;;;2.07;;
37451;SDS011;23314;51.114;6.900;2023-04-25T10:18:06;5.80;;;2.30;;
37451;SDS011;23314;51.114;6.900;2023-04-25T10:20:32;4.93;;;1.80;;
37451;SDS011;23314;51.114;6.900;2023-04-25T10:22:58;5.47;;;2.00;;
37451;SDS011;23314;51.114;6.900;2023-04-25T10:25:38;7.13;;;2.33;;
37451;SDS011;23314;51.114;6.900;2023-04-25T10:28:05;9.63;;;1.80;;
37451;SDS011;23314;51.114;6.900;2023-04-25T10:30:31;6.50;;;2.10;;
37451;SDS011;23314;51.114;6.900;2023-04-25T10:32:58;4.37;;;1.80;;
37451;SDS011;23314;51.114;6.900;2023-04-25T10:35:28;5.10;;;1.60;;
37451;SDS011;23314;51.114;6.900;2023-04-25T10:38:10;5.43;;;1.93;;
37451;SDS011;23314;51.114;6.900;2023-04-25T10:40:38;2.97;;;1.80;;
37451;SDS011;23314;51.114;6.900;2023-04-25T10:48:56;5.57;;;1.67;;
37451;SDS011;23314;51.114;6.900;2023-04-25T10:51:26;4.33;;;1.80;;
37451;SDS011;23314;51.114;6.900;2023-04-25T10:56:38;7.30;;;2.23;;
37451;SDS011;23314;51.114;6.900;2023-04-25T10:59:12;3.97;;;1.97;;
37451;SDS011;23314;51.114;6.900;2023-04-25T11:01:47;5.57;;;1.83;;
37451;SDS011;23314;51.114;6.900;2023-04-25T11:04:20;5.57;;;1.77;;
37451;SDS011;23314;51.114;6.900;2023-04-25T11:09:35;7.30;;;1.80;;
37451;SDS011;23314;51.114;6.900;2023-04-25T11:12:03;6.43;;;2.00;;
37451;SDS011;23314;51.114;6.900;2023-04-25T11:14:30;10.10;;;2.97;;
37451;SDS011;23314;51.114;6.900;2023-04-25T11:16:56;6.40;;;2.10;;
37451;SDS011;23314;51.114;6.900;2023-04-25T11:19:22;7.17;;;2.37;;
37451;SDS011;23314;51.114;6.900;2023-04-25T11:21:49;6.30;;;1.90;;
37451;SDS011;23314;51.114;6.900;2023-04-25T11:24:15;6.37;;;2.13;;
37451;SDS011;23314;51.114;6.900;2023-04-25T11:26:50;4.00;;;2.00;;
37451;SDS011;23314;51.114;6.900;2023-04-25T11:29:16;6.17;;;1.87;;
37451;SDS011;23314;51.114;6.900;2023-04-25T11:31:45;5.27;;;1.73;;
37451;SDS011;23314;51.114;6.900;2023-04-25T11:34:16;4.60;;;1.53;;
37451;SDS011;23314;51.114;6.900;2023-04-25T11:36:43;4.63;;;1.70;;
37451;SDS011;23314;51.114;6.900;2023-04-25T11:39:10;6.27;;;2.03;;
37451;SDS011;23314;51.114;6.900;2023-04-25T11:41:36;5.93;;;1.93;;
37451;SDS011;23314;51.114;6.900;2023-04-25T11:44:02;8.33;;;2.10;;
37451;SDS011;23314;51.114;6.900;2023-04-25T11:46:28;6.97;;;2.00;;
37451;SDS011;23314;51.114;6.900;2023-04-25T11:48:54;6.93;;;2.20;;
37451;SDS011;23314;51.114;6.900;2023-04-25T11:51:22;5.70;;;2.00;;
37451;SDS011;23314;51.114;6.900;2023-04-25T11:53:47;6.13;;;2.20;;
37451;SDS011;23314;51.114;6.900;2023-04-25T11:56:13;6.07;;;2.07;;
37451;SDS011;23314;51.114;6.900;2023-04-25T12:01:28;4.13;;;1.83;;
37451;SDS011;23314;51.114;6.900;2023-04-25T12:03:55;3.27;;;2.00;;
37451;SDS011;23314;51.114;6.900;2023-04-25T12:06:21;4.23;;;1.67;;
37451;SDS011;23314;51.114;6.900;2023-04-25T12:09:06;4.07;;;1.73;;
37451;SDS011;23314;51.114;6.900;2023-04-25T12:11:40;4.63;;;1.93;;
37451;SDS011;23314;51.114;6.900;2023-04-25T12:14:07;5.03;;;1.20;;
37451;SDS011;23314;51.114;6.900;2023-04-25T12:16:46;2.93;;;1.73;;
37451;SDS011;23314;51.114;6.900;2023-04-25T12:19:18;8.60;;;2.77;;
37451;SDS011;23314;51.114;6.900;2023-04-25T12:21:45;6.27;;;2.73;;
37451;SDS011;23314;51.114;6.900;2023-04-25T12:24:14;5.30;;;2.10;;
37451;SDS011;23314;51.114;6.900;2023-04-25T12:29:31;5.37;;;2.10;;
37451;SDS011;23314;51.114;6.900;2023-04-25T12:31:58;8.40;;;2.57;;
37451;SDS011;23314;51.114;6.900;2023-04-25T12:34:25;9.23;;;2.50;;
37451;SDS011;23314;51.114;6.900;2023-04-25T12:36:51;7.00;;;2.13;;
37451;SDS011;23314;51.114;6.900;2023-04-25T12:39:18;4.77;;;2.10;;
37451;SDS011;23314;51.114;6.900;2023-04-25T12:41:45;4.73;;;2.13;;
37451;SDS011;23314;51.114;6.900;2023-04-25T12:44:11;6.00;;;2.43;;
37451;SDS011;23314;51.114;6.900;2023-04-25T12:46:37;7.63;;;2.27;;
37451;SDS011;23314;51.114;6.900;2023-04-25T12:49:03;6.87;;;2.57;;
37451;SDS011;23314;51.114;6.900;2023-04-25T12:51:31;7.70;;;2.50;;
37451;SDS011;23314;51.114;6.900;2023-04-25T12:53:58;4.53;;;1.87;;
37451;SDS011;23314;51.114;6.900;2023-04-25T12:56:24;4.47;;;2.20;;
37451;SDS011;23314;51.114;6.900;2023-04-25T12:58:51;6.20;;;2.10;;
37451;SDS011;23314;51.114;6.900;2023-04-25T13:01:16;9.27;;;3.23;;
37451;SDS011;23314;51.114;6.900;2023-04-25T13:03:41;7.87;;;3.80;;
37451;SDS011;23314;51.114;6.900;2023-04-25T13:06:07;7.20;;;3.57;;
37451;SDS011;23314;51.114;6.900;2023-04-25T13:08:32;7.47;;;3.23;;
37451;SDS011;23314;51.114;6.900;2023-04-25T13:10:58;9.53;;;3.30;;
37451;SDS011;23314;51.114;6.900;2023-04-25T13:13:23;5.93;;;3.07;;
37451;SDS011;23314;51.114;6.900;2023-04-25T13:15:48;8.30;;;3.40;;
37451;SDS011;23314;51.114;6.900;2023-04-25T13:18:14;9.70;;;3.57;;
37451;SDS011;23314;51.114;6.900;2023-04-25T13:20:40;7.57;;;3.47;;
37451;SDS011;23314;51.114;6.900;2023-04-25T13:23:05;7.83;;;3.37;;
37451;SDS011;23314;51.114;6.900;2023-04-25T13:25:31;5.27;;;3.00;;
37451;SDS011;23314;51.114;6.900;2023-04-25T13:27:56;10.47;;;3.80;;
37451;SDS011;23314;51.114;6.900;2023-04-25T13:30:22;4.97;;;2.63;;
37451;SDS011;23314;51.114;6.900;2023-04-25T13:32:47;5.57;;;2.60;;
37451;SDS011;23314;51.114;6.900;2023-04-25T13:35:13;7.97;;;3.07;;
37451;SDS011;23314;51.114;6.900;2023-04-25T13:37:41;6.03;;;2.70;;
37451;SDS011;23314;51.114;6.900;2023-04-25T13:40:07;7.67;;;2.63;;
37451;SDS011;23314;51.114;6.900;2023-04-25T13:42:35;9.07;;;2.23;;
37451;SDS011;23314;51.114;6.900;2023-04-25T13:45:01;3.73;;;1.80;;
37451;SDS011;23314;51.114;6.900;2023-04-25T13:47:28;7.57;;;2.33;;
37451;SDS011;23314;51.114;6.900;2023-04-25T13:49:54;6.70;;;2.27;;
37451;SDS011;23314;51.114;6.900;2023-04-25T13:52:19;5.50;;;2.30;;
37451;SDS011;23314;51.114;6.900;2023-04-25T13:54:45;5.43;;;2.40;;
37451;SDS011;23314;51.114;6.900;2023-04-25T13:57:11;7.87;;;2.57;;
37451;SDS011;23314;51.114;6.900;2023-04-25T13:59:37;4.60;;;2.23;;
37451;SDS011;23314;51.114;6.900;2023-04-25T14:02:02;6.03;;;1.77;;
37451;SDS011;23314;51.114;6.900;2023-04-25T14:04:29;6.27;;;1.90;;
37451;SDS011;23314;51.114;6.900;2023-04-25T14:06:55;5.10;;;1.93;;
37451;SDS011;23314;51.114;6.900;2023-04-25T14:09:20;2.77;;;1.60;;
37451;SDS011;23314;51.114;6.900;2023-04-25T14:11:50;4.53;;;2.17;;
37451;SDS011;23314;51.114;6.900;2023-04-25T14:14:19;4.50;;;1.40;;
37451;SDS011;23314;51.114;6.900;2023-04-25T14:16:46;1.93;;;0.90;;
37451;SDS011;23314;51.114;6.900;2023-04-25T14:19:13;4.47;;;1.50;;
37451;SDS011;23314;51.114;6.900;2023-04-25T14:21:42;3.93;;;1.30;;
37451;SDS011;23314;51.114;6.900;2023-04-25T14:24:10;3.50;;;1.00;;
37451;SDS011;23314;51.114;6.900;2023-04-25T14:26:36;5.70;;;1.47;;
37451;SDS011;23314;51.114;6.900;2023-04-25T14:29:02;2.67;;;1.27;;
37451;SDS011;23314;51.114;6.900;2023-04-25T14:31:31;2.40;;;1.43;;
37451;SDS011;23314;51.114;6.900;2023-04-25T14:34:14;3.60;;;1.77;;
37451;SDS011;23314;51.114;6.900;2023-04-25T14:36:39;5.13;;;1.80;;
37451;SDS011;23314;51.114;6.900;2023-04-25T14:39:04;5.13;;;1.77;;
37451;SDS011;23314;51.114;6.900;2023-04-25T14:41:30;2.23;;;1.57;;
37451;SDS011;23314;51.114;6.900;2023-04-25T14:43:55;4.70;;;1.67;;
37451;SDS011;23314;51.114;6.900;2023-04-25T14:46:22;3.53;;;1.73;;
37451;SDS011;23314;51.114;6.900;2023-04-25T14:48:48;2.40;;;2.10;;
37451;SDS011;23314;51.114;6.900;2023-04-25T14:51:14;2.47;;;1.70;;
37451;SDS011;23314;51.114;6.900;2023-04-25T14:53:39;4.57;;;1.93;;
37451;SDS011;23314;51.114;6.900;2023-04-25T14:56:05;3.03;;;1.87;;